Kenyon, MN

7:33 PM CST on February 24, 2017 (GMT -0600)
Skyberg | | Change Station
Active Advisory: Winter Weather Advisory

Elev 1245 ft 44.21 °N, 92.98 °W | Updated 1 minute ago

Mostly Cloudy
Mostly Cloudy
20.2 °F
Feels Like 9 °F
N
11.0
Wind Variable Wind from NW

Today
High -- | Low -- °F
--% Chance of Precip.
Yesterday
High -- | Low -- °F
Precip. -- in
Pressure 29.83 in
Visibility 10.0 miles
Clouds Scattered Clouds 3600 ft
Mostly Cloudy 9500 ft
Mostly Cloudy 12000 ft
Windchill 9 °F
Dew Point 15 °F
Humidity 83%
Rainfall 0.00 in
Snow Depth Not available.
6:56 AM 5:53 PM
Waning Crescent, 3% visible
METAR KSYN 250114Z AUTO 36012G17KT 10SM SCT036 BKN095 BKN120 M04/M10 A2983 RMK AO2 T10421096
Pressure 29.83 in
Visibility 10.0 miles
Clouds Scattered Clouds 3600 ft
Mostly Cloudy 9500 ft
Mostly Cloudy 12000 ft
Windchill 9 °F
Dew Point 15 °F
Humidity 83%
Rainfall 0.00 in
Snow Depth Not available.
6:56 AM 5:53 PM
Waning Crescent, 3% visible
METAR KSYN 250114Z AUTO 36012G17KT 10SM SCT036 BKN095 BKN120 M04/M10 A2983 RMK AO2 T10421096

Get Your Daily Forecast Email!

Thanks for signing up!

Be on the lookout for a verification email in your inbox.

You'll start receiving the daily forecast at 8 AM.

×

10-Day Weather Forecast

Almanac

Astronomy

Feb. 24, 2017 Rise Set
Actual Time
Civil Twilight
Nautical Twilight
Astronomical Twilight
Moon
Length of Visible Light
Length of Day
Tomorrow will be .
, % of the Moon is Illuminated

Today's Extremes

State Highs State Lows

Community

WunderPhotos

Upload Photos

1,962,540 photos uploaded!

WunderBlog® & News

Nearby

Air Quality

  Air Quality AQ Index Pollutant
Not available.

Snow Depth

Station Depth Elevation

Earthquake Activity

City Distance Mag. Time & Date
Minimum magnitude displayed is 2.5.

Coastal Water Temperatures

Place Temperature

Stations

Nearby Weather Stations

Station Location Temp. Windchill Dew Point Humidity Wind Precip. Elev Updated Type
                   

Watches & Warnings

Winter Weather Advisory
Issued: 4:29 PM CST Feb. 24, 2017 – National Weather Service

... Winter Weather Advisory remains in effect until 2 am CST
Saturday...

* timing... periods of light snow through this evening.

* Additional snow accumulations... up to 3 inches through late this
evening.

* Winds... north 15 to 25 mph with gusts to 30 mph may result in
areas of blowing and drifting snow and reducing visibility.

Precautionary/preparedness actions...

A Winter Weather Advisory for snow and blowing snow means that
visibilities will be limited due to a combination of falling and
blowing snow. Use caution when traveling... especially in open
areas.